Bookmark and Share
Track history (hours):
 

Oceanographic research ship Atair (Germany)

Detailed information on ship capabilities available from University of Delaware's Ocean Information Center.

Last reported at 2014-Apr-16 06:00 UTC. Time now 2014-Apr-16 13:41 UTC.
Position N 54°24' E 010°12'.

Length 51.4 m; beam 11.4 m; draft 3.5 m.

MMSI: 211223296.

Wind variable at 2 knots

Barometer 1030.2 mb
Air temperature 4.1 ° C
Dewpoint 3.9 ° C
Water temperature 48.7 ° C

NotesDate/timePositionNaut miles runAvg speedWind from/ knotsBaromVisibWave heightAir tempDewpointWater temp
2014-Apr-16 06:00N 54°24' E 010°12'1397349.3 variable / 21030.2 4.1 3.948.7
2014-Apr-16 02:00N 54°24' E 050°12'1397698.5 300 / 41027.9 3.7 8.8
2014-Apr-16 00:00N 54°24' E 010°12'0 0.0 variable / 1 5.2
2014-Apr-15 22:00N 54°24' E 010°12'0 0.0 variable / 21026.8 6.3 1.4 8.9
2014-Apr-15 13:00N 54°24' E 010°12'0 0.0 010 / 101023.1 10.2 0.7 8.6
2014-Apr-15 10:00N 54°24' E 010°12'0 0.0 340 / 61021.4 9.4 2.8 8.6
2014-Apr-15 07:00N 54°24' E 010°12'0 0.0 310 / 81018.2 5.6 3.9 8.4
2014-Apr-15 06:00N 54°24' E 010°12'0 0.0 300 / 61017.2 4.4 4.3 8.4
2014-Apr-15 05:00N 54°24' E 010°12'0 0.0 290 / 81016.3 3.7 3.6 8.4
2014-Apr-15 04:00N 54°24' E 010°12'0 0.0 280 / 81015.7 4.0 3.8 8.3
2014-Apr-15 03:00N 54°24' E 010°12'13971397.1 290 / 81015.4 4.2 4.1 8.4
2014-Apr-15 02:00N 54°24' E 050°12'1397279.4 290 / 81014.7 4.4 4.3 8.5
2014-Apr-14 21:00N 54°24' E 010°12'0 0.0 290 / 101011.5 6.3 5.2 8.7
2014-Apr-14 17:00N 54°24' E 010°12'0 0.0 290 / 161009.2 6.8 3.2 8.6
2014-Apr-14 09:00N 54°24' E 010°12'0 0.0 280 / 141004.3 8.0 5.7 8.3
2014-Apr-14 06:00N 54°24' E 010°12'0 0.0 270 / 141002.4 7.1 3.0 8.6
2014-Apr-14 05:00N 54°24' E 010°12'0 0.0 280 / 121002.3 6.9 6.8 8.6
2014-Apr-14 04:00N 54°24' E 010°12'0 0.0 280 / 101002.3 7.3 7.3 8.6
2014-Apr-14 02:00N 54°24' E 010°12'0 0.0 250 / 101004.4 6.6 48.7
2014-Apr-14 01:00N 54°24' E 010°12'0 0.0 260 / 121006.0 7.2 7.2 8.6
2014-Apr-13 22:00N 54°24' E 010°12'0 0.0 250 / 121009.7 7.9 3.8 8.6
2014-Apr-13 20:00N 54°24' E 010°12'0 0.0 250 / 121011.4 7.9 3.7 8.5
2014-Apr-13 19:00N 54°24' E 010°12'0 0.0 260 / 121011.8 8.4 7.6 8.0
2014-Apr-13 09:00N 54°24' E 010°12'0 0.0 260 / 141012.8 9.8 7.9 8.4
2014-Apr-13 08:00N 54°24' E 010°12'0 0.0 270 / 141012.4 9.2 9.0 8.4
2014-Apr-13 05:00N 54°24' E 010°12'0 0.0 260 / 101010.5 8.2 8.0
2014-Apr-12 21:00N 54°24' E 010°12'0 0.0 240 / 81013.0 8.1 8.7
2014-Apr-12 18:00N 54°24' E 010°12'1397199.6 240 / 81013.5 10.8 5.6 8.7
2014-Apr-12 11:00N 54°24' E 050°12'0 0.0 210 / 81057.8 10.3 7.2
2014-Apr-12 09:00N 54°24' E 050°12'1397465.7 160 / 21018.6 7.0 8.2
2014-Apr-12 06:00N 54°24' E 010°12'0 0.0 variable / 21057.7 3.6
2014-Apr-12 05:00N 54°24' E 010°12'0 0.0 280 / 61017.3 3.2 3.2
2014-Apr-12 00:00N 54°24' E 010°12'0 0.0 280 / 41018.0 5.8 5.7 8.5
2014-Apr-11 23:00N 54°24' E 010°12'0 0.0 1018.2 6.1 6.1 8.0
2014-Apr-11 19:00N 54°24' E 010°12'0 0.0 280 / 41017.7 10.1 2.3 8.5
2014-Apr-11 14:00N 54°24' E 010°12'0 0.0 1018.3 12.0 3.4
2014-Apr-11 06:00N 54°24' E 010°12'0 0.0 260 / 81017.4 18.1 8.1 8.2
2014-Apr-11 05:00N 54°24' E 010°12'0 0.0 250 / 81017.4 8.2 8.2 8.3
2014-Apr-11 03:00N 54°24' E 010°12'0 0.0 240 / 61017.4 8.2 8.2 8.3
2014-Apr-11 01:00N 54°24' E 010°12'0 0.0 230 / 41018.1 8.3 8.3 8.6
2014-Apr-10 21:00N 54°24' E 010°12'0 0.0 160 / 61019.1 8.1 8.1 8.4
2014-Apr-10 18:00N 54°24' E 010°12'14 2.3 170 / 61019.3 9.3 9.2 8.1
2014-Apr-10 12:00N 54°36' E 010°24'0 0.0 1021.9 6.7 4.8 7.1
2014-Apr-10 11:00N 54°36' E 010°24'7 1.7 variable / 21022.2 6.5 4.3 6.6
2014-Apr-10 07:00N 54°42' E 010°18'6 6.0 variable / 21019.9 5.9 5.8 6.2
2014-Apr-10 06:00N 54°36' E 010°18'3 3.5 020 / 41019.4 5.5 5.5 6.2
2014-Apr-10 05:00N 54°36' E 010°24'7 7.0 350 / 121019.0 6.0 6.0 6.3
2014-Apr-10 04:00N 54°36' E 010°12'10 5.2 340 / 101018.7 6.1 6.1 6.2
2014-Apr-10 02:00N 54°36' E 010°30'14 7.0 320 / 161017.9 6.5 6.3
2014-Apr-10 00:00N 54°36' E 010°54'7 3.5 310 / 171016.7 6.7 6.7 6.2
2014-Apr-09 22:00N 54°36' E 011°06'15 7.6 300 / 211016.3 7.0 7.0 6.4
2014-Apr-09 20:00N 54°30' E 010°42'12 4.0 280 / 171016.3 8.5 8.5 6.3
2014-Apr-09 17:00N 54°36' E 010°24'7 7.0 290 / 211015.0 9.7 7.6 6.7
2014-Apr-09 16:00N 54°36' E 010°12'7 7.0 290 / 211015.0 9.3 7.5 6.9
2014-Apr-09 15:00N 54°36' E 010°24'3 3.5 280 / 211015.7 8.9 8.5 6.8
2014-Apr-09 14:00N 54°36' E 010°18'6 6.0 290 / 231015.2 9.2 8.0 6.4
2014-Apr-09 13:00N 54°42' E 010°18'18 2.6 290 / 271015.2 8.8 7.2 6.2
2014-Apr-09 06:00N 54°30' E 009°54'3 3.5 270 / 141014.2 7.8 7.8 5.9
2014-Apr-09 05:00N 54°30' E 009°48'0 0.0 270 / 101014.0 7.5 7.5 6.4
2014-Apr-09 04:00N 54°30' E 009°48'0 0.0 270 / 121014.0 7.2 7.1 6.4
2014-Apr-09 01:00N 54°30' E 009°48'0 0.0 280 / 121013.2 7.4 7.2 6.5
2014-Apr-09 00:00N 54°30' E 009°48'0 0.0 280 / 101012.8 7.4 7.4 6.5
2014-Apr-08 21:00N 54°30' E 009°48'0 0.0 270 / 61010.8 7.5 7.5 6.4
2014-Apr-08 19:00N 54°30' E 009°48'0 0.0 270 / 61009.3 7.0 7.0 6.6
2014-Apr-08 16:00N 54°30' E 009°48'22 4.3 260 / 101008.1 10.2 9.1 6.6
2014-Apr-08 11:00N 54°36' E 010°24'7 1.0 250 / 271005.2 8.0 8.0 6.3
2014-Apr-08 04:00N 54°36' E 010°12'3 3.5 210 / 141002.8 10.610.5 6.5
2014-Apr-08 03:00N 54°36' E 010°18'3 3.5 230 / 141003.1 11.811.7 6.6
2014-Apr-08 02:00N 54°36' E 010°24'1010.4 190 / 191003.7 12.112.1 5.7
2014-Apr-08 01:00N 54°36' E 010°42'7 7.0 140 / 19 10.310.3 7.0
2014-Apr-08 00:00N 54°36' E 010°54'9 2.3 140 / 19 10.1 5.0
2014-Apr-07 20:00N 54°30' E 010°42'15 5.1 140 / 141008.9 10.910.9 7.2
2014-Apr-07 17:00N 54°36' E 010°18'7 2.3 190 / 61011.3 13.813.8 6.5
2014-Apr-07 14:00N 54°36' E 010°06'1401466.9 220 / 141012.2 12.912.9 6.8
2014-Apr-07 11:00N 54°36' E 050°24'1397698.6 240 / 121013.1 11.2 6.4
2014-Apr-07 09:00N 54°24' E 010°18'3 0.4 240 / 161013.6 12.412.4 7.0
2014-Apr-07 01:00N 54°24' E 010°12'0 0.0 260 / 101013.8 13.413.4 7.4
2014-Apr-06 16:00N 54°24' E 010°12'0 0.0 220 / 81014.3 13.1 7.2
2014-Apr-06 07:00N 54°24' E 010°12'   190 / 61014.9 9.0 9.0

Dump ship's entire track history

sailing weather and tide predictions

Atair — DBBI — position and weather